createdAt,value
2022-12-26T00:08:02.212Z,97750
2022-12-26T00:20:02.223Z,97740
2022-12-26T00:32:02.258Z,97730
2022-12-26T00:44:02.120Z,97740
2022-12-26T00:56:02.226Z,97740
2022-12-26T01:08:21.491Z,97740
2022-12-26T01:20:02.375Z,97750
2022-12-26T01:32:02.253Z,97770
2022-12-26T01:44:02.176Z,97780
2022-12-26T01:56:02.124Z,97790
2022-12-26T02:08:02.128Z,97780
2022-12-26T02:20:02.237Z,97780
2022-12-26T02:32:02.314Z,97810
2022-12-26T02:44:02.104Z,97820
2022-12-26T02:56:02.216Z,97810
2022-12-26T03:08:02.214Z,97800
2022-12-26T03:20:02.177Z,97800
2022-12-26T03:32:02.106Z,97770
2022-12-26T03:44:02.233Z,97780
2022-12-26T03:56:02.230Z,97790
2022-12-26T04:08:02.219Z,97800
2022-12-26T04:20:02.203Z,97800
2022-12-26T04:32:02.100Z,97790
2022-12-26T04:44:02.236Z,97780
2022-12-26T04:56:02.129Z,97810
2022-12-26T05:08:02.136Z,97810
2022-12-26T05:20:02.109Z,97800
2022-12-26T05:32:02.227Z,97820
2022-12-26T05:44:02.130Z,97820
2022-12-26T05:56:02.210Z,97800
2022-12-26T06:08:02.205Z,97820
2022-12-26T06:20:02.128Z,97810
2022-12-26T06:32:02.306Z,97810
2022-12-26T06:44:02.237Z,97820
2022-12-26T06:56:02.143Z,97840
2022-12-26T07:08:02.235Z,97840
2022-12-26T07:20:02.193Z,97840
2022-12-26T07:32:02.346Z,97860
2022-12-26T07:44:02.204Z,97890
2022-12-26T07:56:02.208Z,97880
2022-12-26T08:08:02.226Z,97860
2022-12-26T08:20:02.223Z,97890
2022-12-26T08:32:02.120Z,97940
2022-12-26T08:44:27.897Z,97920
2022-12-26T08:56:02.268Z,97940
2022-12-26T09:08:02.116Z,97970
2022-12-26T09:20:02.120Z,97960
2022-12-26T09:32:02.220Z,97980
2022-12-26T09:44:02.109Z,97990
2022-12-26T09:56:02.220Z,97990
2022-12-26T10:08:02.213Z,97990
2022-12-26T10:20:02.149Z,97990
2022-12-26T10:32:02.234Z,97980
2022-12-26T10:44:02.304Z,97960
2022-12-26T10:56:02.113Z,97990
2022-12-26T11:08:02.111Z,98000
2022-12-26T11:20:02.103Z,98020
2022-12-26T11:32:02.149Z,98020
2022-12-26T11:44:02.204Z,98020
2022-12-26T11:56:02.214Z,98020
2022-12-26T12:08:02.129Z,97990
2022-12-26T12:20:02.222Z,97980
2022-12-26T12:32:02.260Z,97990
2022-12-26T12:44:02.109Z,97980
2022-12-26T12:56:02.184Z,97970
2022-12-26T13:08:02.207Z,97970
2022-12-26T13:20:03.057Z,97980
2022-12-26T13:32:02.173Z,97990
2022-12-26T13:44:02.218Z,97980
2022-12-26T13:56:02.566Z,98000
2022-12-26T14:08:02.124Z,98010
2022-12-26T14:20:02.248Z,98000
2022-12-26T14:32:02.110Z,98000
2022-12-26T14:44:02.211Z,97980
2022-12-26T14:56:02.111Z,97990
2022-12-26T15:08:02.323Z,98000
2022-12-26T15:20:02.106Z,98060
2022-12-26T15:32:02.102Z,98070
2022-12-26T15:44:02.165Z,98090
2022-12-26T15:56:02.234Z,98070
2022-12-26T16:08:02.205Z,98090
2022-12-26T16:20:02.350Z,98120
2022-12-26T16:32:02.139Z,98120
2022-12-26T16:44:02.235Z,98150
2022-12-26T16:56:02.107Z,98180
2022-12-26T17:08:02.197Z,98190
2022-12-26T17:20:02.106Z,98190
2022-12-26T17:32:02.105Z,98200
2022-12-26T17:44:02.175Z,98220
2022-12-26T17:56:02.118Z,98240
2022-12-26T18:08:02.200Z,98250
2022-12-26T18:20:02.209Z,98260
2022-12-26T18:32:02.114Z,98290
2022-12-26T18:44:02.098Z,98300
2022-12-26T18:56:02.155Z,98330
2022-12-26T19:08:02.116Z,98350
2022-12-26T19:20:02.218Z,98370
2022-12-26T19:32:02.346Z,98420
2022-12-26T19:44:02.180Z,98430
2022-12-26T19:56:02.234Z,98470
2022-12-26T20:08:02.111Z,98470
2022-12-26T20:20:02.104Z,98480
2022-12-26T20:32:02.110Z,98530
2022-12-26T20:44:02.235Z,98550
2022-12-26T20:56:02.211Z,98580
2022-12-26T21:08:02.168Z,98600
2022-12-26T21:20:02.114Z,98620
2022-12-26T21:32:02.195Z,98620
2022-12-26T21:44:02.217Z,98650
2022-12-26T21:56:02.104Z,98670
2022-12-26T22:08:02.125Z,98670
2022-12-26T22:20:02.118Z,98680
2022-12-26T22:32:02.154Z,98680
2022-12-26T22:44:02.195Z,98700
2022-12-26T22:56:02.243Z,98720
2022-12-26T23:08:02.121Z,98730
2022-12-26T23:20:02.144Z,98740
2022-12-26T23:32:02.122Z,98760
2022-12-26T23:44:02.120Z,98750
2022-12-26T23:56:02.108Z,98770
